Terminal Aerodrome Forecast
Issued by NWS Sterling, VA

Current Version | Previous Version | Graphics & Text | Print | Product List | Glossary On
Versions: 1 2 3 4 5 6 7 8 9 10 11 12 13 14 15 16 17 18 19 20 21
000
FTUS41 KLWX 231441 AAA
TAFDCA
TAF AMD
KDCA 231441Z 2315/2418 34008KT P6SM BKN035
     FM231700 33009G19KT P6SM SCT035
     FM240000 35006KT P6SM FEW250=

USA.gov is the U.S. government's official web portal to all federal, state and local government web resources and services.